Time;durP1;ratioP1;P1;durP2;ratioP2;P2;SDS_P1;SDS_P2;PMS_P1;PMS_P2;Temp;Humidity;BMP_temperature;BMP_pressure;BME280_temperature;BME280_humidity;BME280_pressure;Samples;Min_cycle;Max_cycle;Signal;HPM_P1;HPM_P2
2022/03/24 00:01:34;;;;;;;15.57;11.60;;;9.10;47.80;;;;;;5081571;28;20111;-64
2022/03/24 00:04:00;;;;;;;14.60;11.05;;;9.10;47.70;;;;;;5089050;28;20027;-64
2022/03/24 00:06:26;;;;;;;19.05;12.55;;;9.10;47.80;;;;;;5103436;28;20035;-64
2022/03/24 00:08:51;;;;;;;15.70;11.55;;;9.00;47.70;;;;;;5114018;28;20106;-64
2022/03/24 00:11:18;;;;;;;17.23;12.52;;;9.00;47.80;;;;;;5100965;28;20024;-64
2022/03/24 00:13:44;;;;;;;15.70;11.38;;;9.00;47.70;;;;;;5080951;28;20024;-64
2022/03/24 00:16:10;;;;;;;15.27;11.48;;;9.00;47.70;;;;;;5103325;28;20028;-64
2022/03/24 00:18:36;;;;;;;15.82;11.30;;;8.90;47.60;;;;;;5084641;28;20027;-64
2022/03/24 00:21:03;;;;;;;14.90;10.55;;;8.90;47.80;;;;;;5074707;28;20021;-64
2022/03/24 00:23:29;;;;;;;17.20;11.35;;;8.90;47.80;;;;;;5103685;28;20024;-64
2022/03/24 00:25:54;;;;;;;14.88;11.82;;;8.80;47.60;;;;;;5101027;28;20046;-64
2022/03/24 00:28:20;;;;;;;16.10;11.20;;;8.90;47.80;;;;;;5096109;28;20479;-64
2022/03/24 00:30:46;;;;;;;20.50;12.05;;;8.80;47.80;;;;;;5080522;28;20550;-64
2022/03/24 00:33:12;;;;;;;16.73;11.85;;;8.80;47.70;;;;;;5088970;28;20028;-64
2022/03/24 00:35:38;;;;;;;17.42;11.93;;;8.80;47.70;;;;;;5101327;27;20059;-64
2022/03/24 00:38:07;;;;;;;17.35;11.57;;;8.80;47.70;;;;;;5093634;28;20023;-64
2022/03/24 00:40:34;;;;;;;15.38;10.90;;;8.80;48.00;;;;;;5111130;28;20027;-64
2022/03/24 00:43:00;;;;;;;14.85;11.23;;;8.80;47.70;;;;;;5088244;28;20059;-64
2022/03/24 00:45:26;;;;;;;15.00;10.98;;;8.80;47.80;;;;;;5107317;28;20038;-64
2022/03/24 00:47:52;;;;;;;15.70;11.50;;;8.70;47.70;;;;;;5095369;28;20035;-64
2022/03/24 00:50:18;;;;;;;15.70;11.63;;;8.70;47.70;;;;;;5093558;28;20467;-64
2022/03/24 00:52:45;;;;;;;16.23;12.13;;;8.70;47.80;;;;;;5101752;28;20384;-64
2022/03/24 00:55:15;;;;;;;16.88;11.80;;;8.60;47.80;;;;;;5090986;28;20024;-64
2022/03/24 00:57:43;;;;;;;17.52;11.65;;;8.60;47.80;;;;;;5095621;28;20027;-64
2022/03/24 01:00:15;;;;;;;14.55;10.57;;;8.60;47.90;;;;;;5102102;28;20487;-64
2022/03/24 01:02:45;;;;;;;12.73;9.57;;;8.60;47.90;;;;;;5091439;28;20032;-64
2022/03/24 01:05:15;;;;;;;13.82;9.75;;;8.60;47.80;;;;;;5083687;28;20078;-64
2022/03/24 01:07:42;;;;;;;17.30;11.23;;;8.60;48.00;;;;;;5105899;28;20030;-64
2022/03/24 01:10:09;;;;;;;16.63;11.18;;;8.60;47.80;;;;;;5084986;28;20027;-64
2022/03/24 01:12:36;;;;;;;15.88;10.88;;;8.50;47.80;;;;;;5093843;28;20024;-64
2022/03/24 01:15:05;;;;;;;16.00;9.70;;;8.50;47.80;;;;;;5084766;28;20019;-64
2022/03/24 01:17:31;;;;;;;14.60;11.27;;;8.50;47.80;;;;;;5088041;28;20035;-64
2022/03/24 01:19:57;;;;;;;19.20;11.18;;;8.50;48.00;;;;;;5082900;28;20034;-64
2022/03/24 01:22:23;;;;;;;14.63;10.48;;;8.50;47.90;;;;;;5081284;28;20026;-64
2022/03/24 01:24:49;;;;;;;15.82;11.10;;;8.50;48.00;;;;;;5095817;28;20031;-64
2022/03/24 01:27:16;;;;;;;13.52;10.38;;;8.50;48.00;;;;;;5099089;28;20027;-64
2022/03/24 01:29:42;;;;;;;12.32;9.90;;;8.50;48.00;;;;;;5108801;28;20444;-64
2022/03/24 01:32:08;;;;;;;15.43;11.20;;;8.50;48.00;;;;;;5078189;28;20025;-64
2022/03/24 01:34:38;;;;;;;12.65;10.05;;;8.40;48.10;;;;;;5088839;28;20043;-65
2022/03/24 01:37:05;;;;;;;13.07;10.07;;;8.40;48.10;;;;;;5089491;28;20048;-64
2022/03/24 01:39:32;;;;;;;14.52;9.82;;;8.40;48.10;;;;;;5095119;28;20111;-64
2022/03/24 01:42:00;;;;;;;13.27;10.07;;;8.30;48.10;;;;;;5110199;28;20061;-64
2022/03/24 01:44:27;;;;;;;16.23;10.80;;;8.30;48.20;;;;;;5097733;28;20028;-64
2022/03/24 01:46:56;;;;;;;16.23;11.25;;;8.30;48.30;;;;;;5097111;28;20108;-64
2022/03/24 01:49:22;;;;;;;14.88;11.15;;;8.20;48.20;;;;;;5100482;28;20028;-64
2022/03/24 01:51:48;;;;;;;14.30;9.68;;;8.10;48.20;;;;;;5089018;28;20031;-64
2022/03/24 01:54:13;;;;;;;12.85;10.13;;;8.20;48.40;;;;;;5101428;28;20024;-64
2022/03/24 01:56:40;;;;;;;14.88;10.68;;;8.10;48.40;;;;;;5090193;28;20468;-64
2022/03/24 01:59:07;;;;;;;12.27;9.80;;;8.10;48.40;;;;;;5088060;28;20025;-64
2022/03/24 02:01:35;;;;;;;15.73;10.75;;;8.00;48.40;;;;;;5097197;27;20084;-64
2022/03/24 02:04:04;;;;;;;14.00;10.23;;;8.00;48.50;;;;;;5110108;28;20107;-64
2022/03/24 02:06:33;;;;;;;15.52;11.40;;;8.00;48.60;;;;;;5107583;28;20052;-64
2022/03/24 02:09:05;;;;;;;14.50;10.52;;;7.90;48.50;;;;;;5095145;28;20025;-64
2022/03/24 02:11:34;;;;;;;15.93;11.07;;;7.90;48.70;;;;;;5103001;28;20024;-64
2022/03/24 02:14:00;;;;;;;15.55;10.68;;;7.90;48.60;;;;;;5096743;28;20020;-64
2022/03/24 02:16:38;;;;;;;14.40;10.13;;;7.90;48.70;;;;;;5094425;28;20023;-64
2022/03/24 02:19:10;;;;;;;15.20;10.93;;;7.90;48.70;;;;;;5089264;28;20388;-64
2022/03/24 02:21:37;;;;;;;14.27;10.18;;;7.80;48.80;;;;;;5090408;28;20028;-64
2022/03/24 02:24:03;;;;;;;14.90;10.15;;;7.90;49.00;;;;;;5093371;28;20101;-64
2022/03/24 02:26:29;;;;;;;14.93;10.88;;;7.90;49.00;;;;;;5104233;28;20029;-65
2022/03/24 02:28:56;;;;;;;16.23;11.20;;;7.80;48.80;;;;;;5096875;28;20488;-64
2022/03/24 02:31:23;;;;;;;13.93;9.80;;;7.90;49.00;;;;;;5102916;28;20517;-64
2022/03/24 02:33:48;;;;;;;15.93;10.13;;;7.90;49.00;;;;;;5103842;28;20030;-64
2022/03/24 02:36:14;;;;;;;15.18;10.50;;;7.90;48.90;;;;;;5084218;28;20039;-64
2022/03/24 02:38:40;;;;;;;12.88;9.52;;;7.90;48.90;;;;;;5101732;28;20107;-64
2022/03/24 02:41:06;;;;;;;18.27;10.38;;;7.90;49.00;;;;;;5113471;28;20054;-64
2022/03/24 02:43:31;;;;;;;12.88;9.68;;;7.90;48.90;;;;;;5088009;28;20032;-64
2022/03/24 02:45:57;;;;;;;14.35;9.77;;;7.90;48.90;;;;;;5102065;28;20024;-64
2022/03/24 02:48:23;;;;;;;14.48;10.13;;;7.90;48.90;;;;;;5098522;28;20035;-64
2022/03/24 02:50:49;;;;;;;13.77;9.95;;;7.80;48.80;;;;;;5111853;28;20035;-64
2022/03/24 02:53:16;;;;;;;14.90;11.52;;;7.80;48.80;;;;;;5092550;28;20534;-64
2022/03/24 02:55:41;;;;;;;12.95;9.80;;;7.80;48.80;;;;;;5087900;28;20361;-64
2022/03/24 02:58:07;;;;;;;14.25;11.27;;;7.80;48.90;;;;;;5081496;28;20031;-64
2022/03/24 03:00:33;;;;;;;15.73;10.48;;;7.80;48.90;;;;;;5082598;28;20388;-64
2022/03/24 03:02:59;;;;;;;15.55;10.52;;;7.70;48.80;;;;;;5088442;28;20477;-64
2022/03/24 03:05:25;;;;;;;17.05;10.15;;;7.80;48.90;;;;;;5086905;28;20391;-64
2022/03/24 03:07:51;;;;;;;13.23;10.60;;;7.70;48.90;;;;;;5082523;28;20033;-64
2022/03/24 03:10:17;;;;;;;13.48;9.95;;;7.70;48.90;;;;;;5115341;28;20416;-64
2022/03/24 03:12:44;;;;;;;14.20;10.07;;;7.70;49.00;;;;;;5091950;28;20103;-64
2022/03/24 03:15:10;;;;;;;14.40;10.05;;;7.70;49.00;;;;;;5090395;28;20029;-64
2022/03/24 03:17:36;;;;;;;14.82;10.05;;;7.70;49.00;;;;;;5105840;28;20471;-64
2022/03/24 03:20:06;;;;;;;14.93;10.32;;;7.70;49.00;;;;;;5098524;28;20028;-64
2022/03/24 03:22:32;;;;;;;11.02;9.43;;;7.70;49.10;;;;;;5084134;28;20028;-64
2022/03/24 03:24:59;;;;;;;15.35;10.27;;;7.60;49.10;;;;;;5078996;28;20033;-64
2022/03/24 03:27:27;;;;;;;15.93;11.38;;;7.70;49.20;;;;;;5108770;28;20035;-64
2022/03/24 03:29:53;;;;;;;12.82;10.10;;;7.60;49.10;;;;;;5113541;28;20070;-64
2022/03/24 03:32:21;;;;;;;14.40;10.65;;;7.60;49.20;;;;;;5102785;28;20020;-64
2022/03/24 03:34:46;;;;;;;12.77;9.75;;;7.60;49.20;;;;;;5091219;28;20486;-64
2022/03/24 03:37:12;;;;;;;14.40;10.20;;;7.60;49.30;;;;;;5086850;28;20127;-64
2022/03/24 03:39:38;;;;;;;16.30;10.32;;;7.60;49.40;;;;;;5107669;28;20112;-64
2022/03/24 03:42:04;;;;;;;13.65;9.50;;;7.60;49.40;;;;;;5105323;28;20421;-64
2022/03/24 03:44:30;;;;;;;13.90;10.30;;;7.50;49.40;;;;;;5102171;28;20130;-64
2022/03/24 03:46:56;;;;;;;14.68;10.40;;;7.50;49.60;;;;;;5100761;28;20025;-64
2022/03/24 03:49:22;;;;;;;14.07;10.57;;;7.50;49.60;;;;;;5080511;28;20036;-64
2022/03/24 03:51:48;;;;;;;14.65;10.57;;;7.50;49.80;;;;;;5107241;28;20113;-65
2022/03/24 03:54:15;;;;;;;15.15;10.65;;;7.50;49.80;;;;;;5095993;28;20082;-64
2022/03/24 03:56:41;;;;;;;12.27;9.63;;;7.50;49.70;;;;;;5073706;28;20484;-64
2022/03/24 03:59:07;;;;;;;13.85;10.10;;;7.50;49.80;;;;;;5090549;28;20043;-64
2022/03/24 04:01:33;;;;;;;12.35;10.00;;;7.50;49.80;;;;;;5108168;28;20372;-64
2022/03/24 04:04:00;;;;;;;17.50;11.05;;;7.50;49.80;;;;;;5106954;28;20503;-64
2022/03/24 04:06:26;;;;;;;14.63;10.88;;;7.50;49.80;;;;;;5085674;28;20079;-64
2022/03/24 04:08:52;;;;;;;12.80;10.65;;;7.50;50.20;;;;;;5097049;28;20484;-64
2022/03/24 04:11:17;;;;;;;14.80;11.07;;;7.50;50.20;;;;;;5098748;28;20023;-64
2022/03/24 04:13:43;;;;;;;15.02;10.52;;;7.50;50.20;;;;;;5094347;28;20476;-64
2022/03/24 04:16:13;;;;;;;15.35;11.48;;;7.50;50.10;;;;;;5098661;28;20029;-64
2022/03/24 04:18:44;;;;;;;14.40;10.30;;;7.60;50.10;;;;;;5087548;27;20028;-64
2022/03/24 04:21:10;;;;;;;14.27;10.73;;;7.60;50.00;;;;;;5106507;28;20058;-64
2022/03/24 04:23:38;;;;;;;17.08;10.65;;;7.60;50.00;;;;;;5084281;28;20036;-64
2022/03/24 04:26:04;;;;;;;15.73;11.20;;;7.60;50.00;;;;;;5095571;28;20043;-64
2022/03/24 04:28:31;;;;;;;14.48;10.75;;;7.70;50.00;;;;;;5084420;28;20029;-64
2022/03/24 04:30:56;;;;;;;19.38;12.15;;;7.70;49.90;;;;;;5113580;28;20016;-64
2022/03/24 04:33:22;;;;;;;17.67;11.65;;;7.70;49.80;;;;;;5100629;28;20035;-64
2022/03/24 04:35:48;;;;;;;17.67;12.27;;;7.80;49.80;;;;;;5107628;28;20028;-64
2022/03/24 04:38:14;;;;;;;17.38;11.70;;;7.90;49.70;;;;;;5092931;28;20020;-64
2022/03/24 04:40:40;;;;;;;17.63;11.82;;;7.90;49.70;;;;;;5110914;28;20756;-64
2022/03/24 04:43:06;;;;;;;19.83;11.07;;;8.00;49.70;;;;;;5085626;28;20503;-64
2022/03/24 04:45:33;;;;;;;17.55;11.25;;;8.00;49.60;;;;;;5093520;28;20028;-64
2022/03/24 04:47:59;;;;;;;15.50;11.55;;;8.10;49.60;;;;;;5099952;28;20479;-64
2022/03/24 04:50:26;;;;;;;16.92;10.60;;;8.20;49.60;;;;;;5106574;28;20055;-64
2022/03/24 04:52:52;;;;;;;16.13;11.15;;;8.30;49.80;;;;;;5096719;28;20078;-64
2022/03/24 04:55:18;;;;;;;16.02;10.75;;;8.40;49.60;;;;;;5099425;28;20050;-64
2022/03/24 04:57:44;;;;;;;16.00;10.48;;;8.60;49.50;;;;;;5083957;28;20025;-64
2022/03/24 05:00:10;;;;;;;14.68;11.15;;;8.70;49.40;;;;;;5104036;28;20437;-64
2022/03/24 05:02:37;;;;;;;18.27;11.50;;;8.80;49.30;;;;;;5088749;28;20028;-64
2022/03/24 05:05:03;;;;;;;18.75;12.02;;;9.00;49.10;;;;;;5113357;28;20034;-64
2022/03/24 05:07:29;;;;;;;16.38;12.02;;;9.20;49.00;;;;;;5098608;28;20032;-64
2022/03/24 05:09:55;;;;;;;18.65;11.57;;;9.30;48.90;;;;;;5101738;28;20040;-64
2022/03/24 05:12:20;;;;;;;15.80;10.98;;;9.50;48.70;;;;;;5085939;28;20021;-64
2022/03/24 05:14:47;;;;;;;16.70;10.63;;;9.80;48.60;;;;;;5100915;28;20023;-64
2022/03/24 05:17:12;;;;;;;17.27;11.57;;;10.10;48.40;;;;;;5090243;28;20024;-66
2022/03/24 05:19:39;;;;;;;14.20;10.77;;;10.40;47.90;;;;;;5089627;28;20031;-64
2022/03/24 05:22:05;;;;;;;19.13;11.98;;;10.70;47.40;;;;;;5093869;28;20064;-64
2022/03/24 05:24:31;;;;;;;17.20;11.13;;;11.20;47.10;;;;;;5091012;28;20108;-64
2022/03/24 05:26:57;;;;;;;17.75;11.38;;;11.60;46.50;;;;;;5109725;28;20039;-64
2022/03/24 05:29:22;;;;;;;13.75;11.23;;;12.00;45.90;;;;;;5093758;28;20028;-64
2022/03/24 05:31:48;;;;;;;16.52;11.70;;;12.30;45.60;;;;;;5105554;28;20024;-64
2022/03/24 05:34:14;;;;;;;17.67;11.68;;;12.50;45.10;;;;;;5108032;28;20030;-64
2022/03/24 05:36:40;;;;;;;15.60;10.65;;;12.80;44.90;;;;;;5094750;28;20055;-62
2022/03/24 05:39:06;;;;;;;14.95;10.85;;;13.00;44.60;;;;;;5087306;28;20037;-62
2022/03/24 05:41:31;;;;;;;18.73;11.02;;;13.30;44.10;;;;;;5092415;28;20365;-62
2022/03/24 05:44:03;;;;;;;15.50;11.18;;;13.50;43.80;;;;;;5112728;28;20548;-64
2022/03/24 05:46:37;;;;;;;15.95;10.00;;;13.60;43.50;;;;;;5108344;28;20035;-64
2022/03/24 05:49:05;;;;;;;14.25;10.32;;;13.60;43.10;;;;;;5099666;28;20027;-64
2022/03/24 05:51:31;;;;;;;19.30;12.02;;;13.60;43.10;;;;;;5093138;28;20381;-63
2022/03/24 05:53:57;;;;;;;16.60;11.15;;;13.60;43.20;;;;;;5088787;28;20046;-64
2022/03/24 05:56:23;;;;;;;14.35;10.27;;;13.60;43.20;;;;;;5111618;28;20040;-64
2022/03/24 05:58:49;;;;;;;14.95;10.00;;;13.80;43.30;;;;;;5096186;28;20379;-65
2022/03/24 06:01:15;;;;;;;14.55;11.20;;;14.10;43.10;;;;;;5105941;28;20019;-64
2022/03/24 06:03:44;;;;;;;19.55;12.00;;;14.40;43.10;;;;;;5095005;28;20043;-64
2022/03/24 06:06:10;;;;;;;14.85;11.38;;;14.70;42.60;;;;;;5097625;28;20040;-64
2022/03/24 06:08:37;;;;;;;13.57;11.00;;;15.00;42.40;;;;;;5081330;28;20358;-64
2022/03/24 06:11:04;;;;;;;18.60;10.98;;;15.40;42.20;;;;;;5083692;28;20034;-62
2022/03/24 06:13:30;;;;;;;18.70;11.50;;;15.90;41.60;;;;;;5097231;28;20503;-62
2022/03/24 06:15:55;;;;;;;13.48;10.23;;;16.30;41.00;;;;;;5109948;28;20023;-62
2022/03/24 06:18:21;;;;;;;14.00;11.32;;;16.70;40.30;;;;;;5095025;28;20024;-62
2022/03/24 06:20:47;;;;;;;15.63;11.60;;;16.90;39.90;;;;;;5085268;28;20032;-63
2022/03/24 06:23:13;;;;;;;14.20;11.25;;;16.80;39.70;;;;;;5099807;28;20034;-62
2022/03/24 06:25:42;;;;;;;16.48;11.75;;;16.60;39.90;;;;;;5086454;28;20025;-62
2022/03/24 06:28:08;;;;;;;16.20;11.93;;;16.10;40.20;;;;;;5082980;28;20101;-64
2022/03/24 06:30:34;;;;;;;15.13;11.63;;;15.70;40.70;;;;;;5097440;28;20032;-63
2022/03/24 06:33:01;;;;;;;16.77;12.40;;;15.30;41.30;;;;;;5090388;28;20028;-63
2022/03/24 06:35:27;;;;;;;17.20;12.70;;;15.00;41.80;;;;;;5083803;28;20085;-63
2022/03/24 06:37:53;;;;;;;16.98;12.98;;;14.70;42.30;;;;;;5085349;28;20385;-63
2022/03/24 06:40:19;;;;;;;18.77;13.25;;;14.40;42.60;;;;;;5088153;28;20051;-64
2022/03/24 06:42:46;;;;;;;20.70;12.77;;;14.20;43.00;;;;;;5086755;28;20055;-62
2022/03/24 06:45:13;;;;;;;17.73;12.02;;;14.00;43.40;;;;;;5087264;28;20431;-64
2022/03/24 06:47:40;;;;;;;17.20;12.65;;;13.90;43.60;;;;;;5096570;28;20032;-63
2022/03/24 06:50:10;;;;;;;20.27;13.48;;;13.70;43.70;;;;;;5100971;28;20348;-63
2022/03/24 06:52:35;;;;;;;20.98;13.52;;;13.60;44.10;;;;;;5078513;28;20060;-63
2022/03/24 06:55:01;;;;;;;18.88;13.65;;;13.60;44.10;;;;;;5082103;28;20457;-63
2022/03/24 06:57:27;;;;;;;16.55;12.63;;;13.50;44.40;;;;;;5078824;28;20098;-63
2022/03/24 06:59:53;;;;;;;18.02;13.60;;;13.40;44.50;;;;;;5084277;28;20288;-63
2022/03/24 07:02:18;;;;;;;16.23;12.35;;;13.40;44.60;;;;;;5083026;28;20396;-63
2022/03/24 07:04:44;;;;;;;18.50;13.70;;;13.30;44.80;;;;;;5088226;28;20437;-63
2022/03/24 07:07:10;;;;;;;22.23;14.68;;;13.30;45.70;;;;;;5078888;28;20365;-64
2022/03/24 07:09:35;;;;;;;19.23;13.57;;;13.20;45.20;;;;;;5080869;28;20118;-64
2022/03/24 07:12:02;;;;;;;17.35;14.00;;;13.20;45.50;;;;;;5088406;28;20055;-64
2022/03/24 07:14:28;;;;;;;19.08;14.60;;;13.20;45.80;;;;;;5085163;28;20043;-64
2022/03/24 07:16:53;;;;;;;20.40;15.52;;;13.20;46.00;;;;;;5076860;28;20086;-63
2022/03/24 07:19:19;;;;;;;22.67;15.70;;;13.10;46.40;;;;;;5083361;28;20039;-63
2022/03/24 07:21:46;;;;;;;22.08;15.15;;;13.10;46.60;;;;;;5070199;28;20032;-63
2022/03/24 07:24:12;;;;;;;19.67;14.82;;;13.10;46.80;;;;;;5079309;28;20715;-62
2022/03/24 07:26:38;;;;;;;17.83;14.75;;;13.10;46.70;;;;;;5078008;28;20486;-63
2022/03/24 07:29:04;;;;;;;19.38;15.00;;;13.10;46.80;;;;;;5079806;28;20020;-62
2022/03/24 07:31:33;;;;;;;20.13;15.35;;;13.00;46.70;;;;;;5074883;28;20020;-63
2022/03/24 07:33:59;;;;;;;17.73;15.38;;;13.00;46.90;;;;;;5082559;28;20065;-63
2022/03/24 07:36:25;;;;;;;17.10;14.20;;;12.90;47.10;;;;;;5083003;28;20118;-63
2022/03/24 07:38:56;;;;;;;16.90;13.65;;;12.90;47.30;;;;;;5083055;28;20085;-63
2022/03/24 07:41:22;;;;;;;15.70;13.93;;;12.80;47.80;;;;;;5081503;28;20028;-63
2022/03/24 07:43:48;;;;;;;18.35;13.02;;;12.70;48.30;;;;;;5078236;28;20047;-63
2022/03/24 07:46:14;;;;;;;18.15;13.82;;;12.70;48.50;;;;;;5083653;28;20082;-63
2022/03/24 07:48:40;;;;;;;17.33;14.05;;;12.50;48.70;;;;;;5079816;28;20036;-63
2022/03/24 07:51:07;;;;;;;18.48;14.82;;;12.40;49.20;;;;;;5090892;28;20027;-63
2022/03/24 07:53:53;;;;;;;15.88;13.93;;;12.30;49.50;;;;;;5080694;28;20446;-63
2022/03/24 07:56:22;;;;;;;19.60;14.88;;;12.30;49.90;;;;;;5090246;28;20024;-63
2022/03/24 07:58:48;;;;;;;19.90;15.38;;;12.20;50.10;;;;;;5086012;28;20427;-63
2022/03/24 08:01:14;;;;;;;19.15;15.73;;;12.10;50.40;;;;;;5080835;28;20143;-63
2022/03/24 08:03:40;;;;;;;21.52;16.20;;;12.10;50.60;;;;;;5080392;28;20028;-63
2022/03/24 08:06:05;;;;;;;18.25;14.93;;;12.00;50.60;;;;;;5082023;28;20028;-63
2022/03/24 08:08:31;;;;;;;20.73;16.40;;;12.00;50.60;;;;;;5073282;28;20049;-63
2022/03/24 08:10:58;;;;;;;17.83;15.95;;;12.00;50.70;;;;;;5072368;28;20038;-63
2022/03/24 08:13:24;;;;;;;21.90;18.08;;;12.00;50.70;;;;;;5071609;28;20024;-65
2022/03/24 08:15:51;;;;;;;23.25;19.00;;;12.00;50.70;;;;;;5072022;28;20546;-65
2022/03/24 08:18:18;;;;;;;23.83;19.95;;;12.00;50.90;;;;;;5076328;28;20131;-64
2022/03/24 08:20:47;;;;;;;28.63;21.77;;;12.00;50.80;;;;;;5078043;28;20126;-64
2022/03/24 08:23:13;;;;;;;24.75;20.92;;;12.00;50.70;;;;;;5076052;28;23014;-64
2022/03/24 08:25:40;;;;;;;26.95;22.17;;;12.00;50.60;;;;;;5076480;28;20107;-65
2022/03/24 08:28:06;;;;;;;29.45;23.60;;;12.00;50.60;;;;;;5071628;28;20035;-65
2022/03/24 08:30:32;;;;;;;31.85;25.88;;;12.00;50.60;;;;;;5071389;28;20040;-64
2022/03/24 08:32:58;;;;;;;29.80;24.92;;;12.00;50.80;;;;;;5070656;28;20032;-66
2022/03/24 08:35:24;;;;;;;30.48;25.27;;;12.00;50.80;;;;;;5072563;28;20040;-66
2022/03/24 08:37:50;;;;;;;33.83;26.33;;;12.00;50.70;;;;;;5077118;28;20404;-65
2022/03/24 08:40:15;;;;;;;31.92;25.17;;;11.90;50.80;;;;;;5069791;28;20111;-63
2022/03/24 08:42:43;;;;;;;29.45;24.40;;;11.90;50.70;;;;;;5076359;28;20035;-64
2022/03/24 08:45:11;;;;;;;29.60;24.50;;;11.90;50.80;;;;;;5075927;28;20037;-64
2022/03/24 08:47:38;;;;;;;34.90;27.52;;;11.90;50.80;;;;;;5078099;28;20060;-64
2022/03/24 08:50:06;;;;;;;29.80;25.50;;;11.90;50.60;;;;;;5067151;28;21502;-65
2022/03/24 08:52:32;;;;;;;32.10;26.45;;;11.90;50.70;;;;;;5074849;28;20042;-63
2022/03/24 08:54:57;;;;;;;32.13;25.38;;;11.90;50.70;;;;;;5072851;28;20042;-64
2022/03/24 08:57:27;;;;;;;31.35;24.92;;;11.90;50.70;;;;;;5075808;28;20024;-63
2022/03/24 09:00:02;;;;;;;30.55;26.15;;;11.90;50.90;;;;;;5075779;28;20024;-63
2022/03/24 09:02:28;;;;;;;31.02;25.23;;;11.90;51.00;;;;;;5067178;28;20107;-65
2022/03/24 09:04:54;;;;;;;32.03;25.85;;;11.90;51.40;;;;;;5069972;28;20050;-64
2022/03/24 09:07:20;;;;;;;30.88;26.65;;;11.90;51.80;;;;;;5071572;28;20029;-65
2022/03/24 09:09:46;;;;;;;31.95;26.13;;;11.80;52.00;;;;;;5073662;28;20047;-65
2022/03/24 09:12:12;;;;;;;34.00;27.45;;;11.80;52.30;;;;;;5070267;28;20032;-65
2022/03/24 09:14:42;;;;;;;33.92;27.75;;;11.80;52.70;;;;;;5067941;28;20032;-64
2022/03/24 09:17:09;;;;;;;35.20;27.45;;;11.70;52.50;;;;;;5073242;28;20039;-64
2022/03/24 09:19:35;;;;;;;38.25;28.70;;;11.70;52.70;;;;;;5073133;28;20055;-64
2022/03/24 09:22:04;;;;;;;34.75;28.25;;;11.70;52.80;;;;;;5070313;28;20043;-64
2022/03/24 09:24:31;;;;;;;33.58;27.75;;;11.70;52.90;;;;;;5079800;28;20028;-64
2022/03/24 09:26:56;;;;;;;33.53;27.65;;;11.70;52.90;;;;;;5071000;28;20036;-63
2022/03/24 09:29:22;;;;;;;39.00;28.80;;;11.60;52.90;;;;;;5066713;28;20040;-63
2022/03/24 09:31:48;;;;;;;32.22;28.50;;;11.70;53.00;;;;;;5066935;28;20449;-63
2022/03/24 09:34:15;;;;;;;36.47;30.27;;;11.70;53.00;;;;;;5067773;28;20065;-64
2022/03/24 09:36:41;;;;;;;37.67;30.42;;;11.70;53.20;;;;;;5075033;28;20070;-63
2022/03/24 09:39:08;;;;;;;31.15;27.48;;;11.70;53.20;;;;;;5070103;28;20043;-63
2022/03/24 09:41:35;;;;;;;33.72;29.35;;;11.70;53.40;;;;;;5063221;28;20491;-64
2022/03/24 09:44:02;;;;;;;37.85;30.42;;;11.70;53.60;;;;;;5067187;28;20570;-64
2022/03/24 09:46:29;;;;;;;39.13;30.63;;;11.70;53.60;;;;;;5066412;28;20439;-64
2022/03/24 09:48:55;;;;;;;36.10;30.48;;;11.80;53.40;;;;;;5064275;28;20135;-62
2022/03/24 09:51:28;;;;;;;34.30;30.58;;;11.80;53.30;;;;;;5075829;28;20024;-63
2022/03/24 09:53:54;;;;;;;36.58;29.92;;;11.80;53.20;;;;;;5074615;28;20062;-62
2022/03/24 09:56:20;;;;;;;36.60;29.92;;;11.90;53.20;;;;;;5070468;28;20048;-62
2022/03/24 09:58:48;;;;;;;33.92;29.13;;;11.90;53.20;;;;;;5076949;28;20100;-62
2022/03/24 10:01:15;;;;;;;32.30;27.65;;;11.90;53.10;;;;;;5070813;28;20032;-63
2022/03/24 10:04:07;;;;;;;35.97;28.27;;;11.90;53.00;;;;;;5074754;28;20052;-63
2022/03/24 10:06:34;;;;;;;34.78;28.83;;;12.00;52.90;;;;;;5068523;28;20065;-63
2022/03/24 10:09:00;;;;;;;32.78;27.05;;;12.00;53.00;;;;;;5073870;28;20032;-63
2022/03/24 10:11:27;;;;;;;34.10;28.80;;;12.00;53.00;;;;;;5070396;28;20037;-63
2022/03/24 10:13:55;;;;;;;31.75;27.55;;;12.00;53.00;;;;;;5064181;28;20068;-63
2022/03/24 10:16:33;;;;;;;34.28;27.95;;;12.00;53.00;;;;;;5073470;28;20669;-64
2022/03/24 10:19:06;;;;;;;34.13;28.83;;;12.10;53.10;;;;;;5073881;28;20032;-63
2022/03/24 10:21:35;;;;;;;31.00;26.10;;;12.10;53.10;;;;;;5070597;28;20043;-63
2022/03/24 10:24:26;;;;;;;32.05;27.23;;;12.10;53.10;;;;;;5081493;28;20016;-63
2022/03/24 10:27:03;;;;;;;;;;;12.10;53.20;;;;;;5076457;28;20120;-64
2022/03/24 10:29:31;;;;;;;25.92;21.80;;;11.90;53.30;;;;;;5073229;28;20257;-64
2022/03/24 10:31:57;;;;;;;27.17;21.60;;;11.90;52.90;;;;;;5078562;28;20047;-63
2022/03/24 10:34:39;;;;;;;23.58;19.50;;;11.90;52.70;;;;;;5067563;28;20392;-64
2022/03/24 10:37:12;;;;;;;23.88;18.35;;;11.90;52.50;;;;;;5068868;28;20079;-64
2022/03/24 10:39:53;;;;;;;24.63;18.98;;;11.80;52.40;;;;;;5077122;28;20085;-63
2022/03/24 10:42:23;;;;;;;24.97;19.13;;;11.80;52.30;;;;;;5075827;28;20120;-63
2022/03/24 10:45:14;;;;;;;21.08;16.35;;;11.80;52.30;;;;;;5075495;28;20050;-62
2022/03/24 10:47:54;;;;;;;20.65;17.52;;;11.70;52.10;;;;;;5076124;28;20531;-63
2022/03/24 10:50:32;;;;;;;19.48;16.88;;;11.70;52.20;;;;;;5073986;28;20043;-62
2022/03/24 10:53:04;;;;;;;20.02;15.25;;;11.60;52.10;;;;;;5073892;28;20035;-64
2022/03/24 10:55:43;;;;;;;20.70;15.85;;;11.60;52.00;;;;;;5073406;28;20020;-64
2022/03/24 10:58:17;;;;;;;20.70;16.30;;;11.60;52.00;;;;;;5073680;28;20032;-63
2022/03/24 11:00:45;;;;;;;17.70;14.80;;;11.60;51.60;;;;;;5067504;28;20517;-64
2022/03/24 11:03:11;;;;;;;18.98;15.52;;;11.50;51.50;;;;;;5080702;28;20016;-62
2022/03/24 11:05:37;;;;;;;19.10;15.45;;;11.50;51.30;;;;;;5072004;28;20036;-63
2022/03/24 11:08:08;;;;;;;17.60;14.50;;;11.50;51.30;;;;;;5074435;28;20043;-63
2022/03/24 11:10:46;;;;;;;18.77;15.35;;;11.50;51.10;;;;;;5074787;28;20047;-63
2022/03/24 11:13:33;;;;;;;17.50;14.25;;;11.50;51.20;;;;;;5072431;28;20511;-64
2022/03/24 11:16:00;;;;;;;18.52;14.10;;;11.50;51.20;;;;;;5066758;28;20431;-63
2022/03/24 11:18:25;;;;;;;17.90;14.10;;;11.50;50.90;;;;;;5071756;28;20155;-64
2022/03/24 11:20:54;;;;;;;18.13;14.35;;;11.50;50.90;;;;;;5078652;28;20036;-64
2022/03/24 11:23:23;;;;;;;16.83;13.20;;;11.50;50.90;;;;;;5067678;28;20031;-63
2022/03/24 11:25:53;;;;;;;15.80;13.13;;;11.40;50.70;;;;;;5058851;28;20028;-64
2022/03/24 11:28:20;;;;;;;14.90;13.13;;;11.50;51.10;;;;;;5070400;28;20032;-64
2022/03/24 11:30:46;;;;;;;16.40;12.85;;;11.50;50.50;;;;;;5069560;28;20098;-64
2022/03/24 11:33:13;;;;;;;15.52;13.15;;;11.50;50.50;;;;;;5072723;28;20095;-63
2022/03/24 11:35:39;;;;;;;15.98;12.80;;;11.50;50.40;;;;;;5063650;28;20587;-63
2022/03/24 11:38:06;;;;;;;16.02;13.15;;;11.50;50.20;;;;;;5062593;28;20043;-63
2022/03/24 11:40:34;;;;;;;16.88;13.80;;;11.50;50.40;;;;;;5065149;28;20295;-63
2022/03/24 11:43:09;;;;;;;15.52;13.57;;;11.50;50.60;;;;;;5060991;28;20085;-62
2022/03/24 11:45:54;;;;;;;15.32;12.88;;;11.50;50.90;;;;;;5063633;28;20408;-62
2022/03/24 11:48:31;;;;;;;14.85;12.00;;;11.50;51.10;;;;;;5061122;28;20024;-63
2022/03/24 11:50:57;;;;;;;16.48;12.95;;;11.50;51.30;;;;;;5057405;28;20105;-64
2022/03/24 11:53:25;;;;;;;14.25;11.85;;;11.50;51.40;;;;;;5069776;28;20039;-63
2022/03/24 11:56:03;;;;;;;13.82;12.30;;;11.50;51.70;;;;;;5070946;28;20488;-63
2022/03/24 11:58:29;;;;;;;14.70;11.65;;;11.50;51.70;;;;;;5072896;28;20027;-64
2022/03/24 12:00:56;;;;;;;14.95;12.05;;;11.50;51.80;;;;;;5072409;28;20035;-63
2022/03/24 12:03:41;;;;;;;14.52;12.02;;;11.40;51.70;;;;;;5067660;28;20380;-63
2022/03/24 12:06:08;;;;;;;14.57;11.18;;;11.40;51.20;;;;;;5063679;28;20074;-63
2022/03/24 12:09:02;;;;;;;15.55;10.95;;;11.40;51.20;;;;;;5067412;28;20636;-63
2022/03/24 12:11:33;;;;;;;13.73;10.90;;;11.40;51.30;;;;;;5068035;28;20032;-64
2022/03/24 12:14:20;;;;;;;17.50;11.32;;;11.40;51.40;;;;;;5071694;28;20029;-63
2022/03/24 12:16:51;;;;;;;12.35;10.80;;;11.40;51.40;;;;;;5069435;28;20036;-63
2022/03/24 12:19:41;;;;;;;15.00;11.55;;;11.40;51.60;;;;;;5064796;28;20500;-62
2022/03/24 12:22:32;;;;;;;15.00;11.50;;;11.40;51.70;;;;;;5066305;28;20039;-62
2022/03/24 12:25:00;;;;;;;12.68;10.40;;;11.40;51.90;;;;;;5066187;28;20048;-63
2022/03/24 12:27:55;;;;;;;17.10;10.63;;;11.30;51.80;;;;;;5069022;28;20688;-63
2022/03/24 12:30:22;;;;;;;11.27;9.95;;;11.40;51.90;;;;;;5064752;28;20035;-64
2022/03/24 12:33:08;;;;;;;13.65;9.68;;;11.30;52.00;;;;;;5061336;28;20630;-63
2022/03/24 12:35:51;;;;;;;13.57;9.65;;;11.30;51.60;;;;;;5068491;28;20026;-62
2022/03/24 12:38:32;;;;;;;13.77;9.80;;;11.30;51.50;;;;;;5074504;28;20044;-63